Time;durP1;ratioP1;P1;durP2;ratioP2;P2;SDS_P1;SDS_P2;PMS_P1;PMS_P2;Temp;Humidity;BMP_temperature;BMP_pressure;BME280_temperature;BME280_humidity;BME280_pressure;Samples;Min_cycle;Max_cycle;Signal;HPM_P1;HPM_P2
2021/03/17 00:00:21;;;;;;;4.67;1.20;;;;;;;2.43;77.38;101484.20;123414;1105;65282;-75
2021/03/17 00:02:47;;;;;;;7.50;1.20;;;;;;;2.45;77.36;101476.25;123385;1105;64892;-77
2021/03/17 00:05:18;;;;;;;7.93;1.13;;;;;;;2.45;77.26;101492.80;123285;1105;65905;-77
2021/03/17 00:07:45;;;;;;;5.23;0.93;;;;;;;2.47;77.00;101479.61;123418;1105;64956;-77
2021/03/17 00:10:13;;;;;;;5.17;1.10;;;;;;;2.48;76.74;101480.44;123773;1102;64918;-75
2021/03/17 00:12:39;;;;;;;5.43;1.03;;;;;;;2.49;77.30;101484.72;123410;1102;64921;-74
2021/03/17 00:15:06;;;;;;;3.45;0.55;;;;;;;2.48;76.97;101483.05;123361;1103;65713;-75
2021/03/17 00:17:32;;;;;;;3.47;0.73;;;;;;;2.45;76.44;101484.94;123469;1105;64924;-77
2021/03/17 00:19:59;;;;;;;2.80;0.83;;;;;;;2.44;76.87;101475.42;123339;1106;65771;-76
2021/03/17 00:22:25;;;;;;;2.67;1.17;;;;;;;2.44;76.52;101483.27;123367;1102;64972;-75
2021/03/17 00:24:51;;;;;;;4.60;1.20;;;;;;;2.47;76.29;101486.62;123261;1102;64895;-74
2021/03/17 00:27:17;;;;;;;6.90;1.87;;;;;;;2.45;76.74;101492.80;123324;1106;65375;-78
2021/03/17 00:29:43;;;;;;;3.90;1.00;;;;;;;2.45;77.15;101484.94;123411;1105;64982;-75
2021/03/17 00:32:10;;;;;;;2.75;0.80;;;;;;;2.47;76.68;101486.62;123375;1102;65039;-75
2021/03/17 00:34:36;;;;;;;3.83;0.80;;;;;;;2.46;76.88;101488.39;123517;1106;65693;-77
2021/03/17 00:37:04;;;;;;;4.45;0.98;;;;;;;2.45;77.31;101487.56;123375;1105;64880;-74
2021/03/17 00:39:30;;;;;;;0.60;0.40;;;;;;;2.44;77.56;101480.66;123450;1105;64947;-76
2021/03/17 00:41:56;;;;;;;2.63;0.90;;;;;;;2.43;77.14;101473.73;123387;1102;65215;-76
2021/03/17 00:44:22;;;;;;;1.67;0.40;;;;;;;2.43;77.23;101492.05;123396;1105;64985;-76
2021/03/17 00:46:48;;;;;;;1.83;0.83;;;;;;;2.43;76.86;101489.44;123433;1105;64915;-77
2021/03/17 00:49:14;;;;;;;4.53;0.80;;;;;;;2.44;77.65;101493.75;123493;1106;64783;-75
2021/03/17 00:51:40;;;;;;;2.25;0.60;;;;;;;2.47;77.45;101489.25;123435;1105;65911;-75
2021/03/17 00:54:08;;;;;;;5.30;0.90;;;;;;;2.45;78.21;101487.56;123458;1102;64992;-75
2021/03/17 00:56:34;;;;;;;6.77;1.17;;;;;;;2.45;78.61;101495.41;123418;1102;64889;-74
2021/03/17 00:59:00;;;;;;;8.43;1.10;;;;;;;2.42;78.29;101493.02;123397;1105;66099;-75
2021/03/17 01:01:27;;;;;;;3.08;1.45;;;;;;;2.33;79.22;101485.75;123350;1105;65546;-76
2021/03/17 01:03:53;;;;;;;3.37;1.03;;;;;;;2.21;79.74;101491.79;123505;1105;64841;-76
2021/03/17 01:06:20;;;;;;;2.83;1.30;;;;;;;2.10;80.07;101483.81;123329;1105;65029;-78
2021/03/17 01:08:46;;;;;;;1.60;1.10;;;;;;;2.01;80.10;101491.32;123552;1105;64892;-74
2021/03/17 01:11:13;;;;;;;3.37;1.00;;;;;;;1.90;80.83;101495.59;123427;1105;64972;-75
2021/03/17 01:13:40;;;;;;;2.60;1.37;;;;;;;1.80;81.62;101492.72;123650;1102;64872;-77
2021/03/17 01:16:08;;;;;;;3.80;1.73;;;;;;;1.73;81.85;101494.05;126404;1105;64758;-77
2021/03/17 01:18:34;;;;;;;5.63;2.00;;;;;;;1.69;82.03;101482.11;123483;1102;65077;-75
2021/03/17 01:21:01;;;;;;;2.73;1.47;;;;;;;1.65;82.21;101488.47;123337;1105;64957;-78
2021/03/17 01:23:27;;;;;;;4.37;1.53;;;;;;;1.63;82.65;101488.55;123423;1102;65314;-75
2021/03/17 01:25:54;;;;;;;6.78;1.70;;;;;;;1.58;82.75;101491.47;123383;1105;66175;-75
2021/03/17 01:28:20;;;;;;;4.75;1.85;;;;;;;1.56;82.64;101477.65;123382;1102;64915;-75
2021/03/17 01:30:49;;;;;;;2.70;0.87;;;;;;;1.52;83.76;101486.62;123949;1105;64886;-76
2021/03/17 01:33:17;;;;;;;3.20;1.03;;;;;;;1.50;82.99;101483.27;123720;1102;65304;-77
2021/03/17 01:35:45;;;;;;;5.73;1.33;;;;;;;1.50;82.68;101487.66;123372;1105;64991;-78
2021/03/17 01:38:12;;;;;;;4.90;1.47;;;;;;;1.49;83.19;101486.83;124060;1102;64940;-76
2021/03/17 01:40:42;;;;;;;6.73;2.23;;;;;;;1.50;83.57;101483.27;123658;1105;64959;-76
2021/03/17 01:43:09;;;;;;;2.37;1.60;;;;;;;1.48;83.68;101494.77;123498;1105;65711;-75
2021/03/17 01:45:36;;;;;;;5.90;2.27;;;;;;;1.47;84.18;101493.06;123383;1105;66039;-77
2021/03/17 01:48:03;;;;;;;5.20;2.60;;;;;;;1.43;85.33;101495.05;123437;1102;66054;-77
2021/03/17 01:50:35;;;;;;;6.43;2.00;;;;;;;1.42;84.85;101501.20;123417;1102;64990;-77
2021/03/17 01:53:07;;;;;;;9.40;2.20;;;;;;;1.40;85.28;101493.48;123382;1102;64924;-74
2021/03/17 01:55:34;;;;;;;9.00;2.87;;;;;;;1.39;85.20;101502.23;123405;1105;64931;-76
2021/03/17 01:58:01;;;;;;;6.93;1.93;;;;;;;1.39;85.45;101491.78;123457;1102;66167;-75
2021/03/17 02:00:27;;;;;;;7.73;2.13;;;;;;;1.42;84.82;101493.36;123384;1105;65330;-75
2021/03/17 02:02:55;;;;;;;5.90;2.10;;;;;;;1.45;84.93;101498.41;123332;1105;65345;-76
2021/03/17 02:05:25;;;;;;;6.23;1.30;;;;;;;1.46;84.47;101494.84;123479;1103;64898;-75
2021/03/17 02:07:54;;;;;;;4.63;1.10;;;;;;;1.48;84.07;101490.36;123480;1102;65001;-75
2021/03/17 02:10:23;;;;;;;1.57;0.80;;;;;;;1.50;83.97;101487.66;123408;1105;64920;-76
2021/03/17 02:13:01;;;;;;;4.03;1.00;;;;;;;1.51;83.81;101487.58;123604;1105;65249;-76
2021/03/17 02:15:48;;;;;;;1.50;0.90;;;;;;;1.54;83.27;101486.53;123315;1103;64918;-74
2021/03/17 02:18:24;;;;;;;3.00;1.30;;;;;;;1.54;83.61;101484.75;123476;1102;64962;-76
2021/03/17 02:21:15;;;;;;;2.67;1.50;;;;;;;1.56;83.70;101488.11;123399;1102;64907;-76
2021/03/17 02:24:16;;;;;;;4.57;1.70;;;;;;;1.56;84.42;101488.11;123372;1105;64911;-73
2021/03/17 02:27:21;;;;;;;4.40;2.00;;;;;;;1.56;84.13;101484.66;123401;1102;64939;-76
2021/03/17 02:30:18;;;;;;;4.37;2.37;;;;;;;1.57;84.16;101481.96;123406;1103;64885;-75
2021/03/17 02:33:26;;;;;;;5.00;1.97;;;;;;;1.57;84.14;101483.71;123442;1102;65716;-76
2021/03/17 02:36:01;;;;;;;2.20;1.40;;;;;;;1.56;84.85;101482.88;123345;1102;64893;-73
2021/03/17 02:38:30;;;;;;;3.00;1.22;;;;;;;1.55;85.17;101481.22;123384;1105;64902;-76
2021/03/17 02:40:59;;;;;;;5.90;2.63;;;;;;;1.55;85.11;101485.58;123638;1106;65706;-75
2021/03/17 02:43:35;;;;;;;5.47;2.70;;;;;;;1.56;84.99;101477.65;123408;1106;64888;-76
2021/03/17 02:46:06;;;;;;;8.30;2.90;;;;;;;1.57;84.73;101471.50;123616;1105;64846;-78
2021/03/17 02:48:38;;;;;;;9.17;3.13;;;;;;;1.57;84.84;101471.50;123531;1105;64972;-75
2021/03/17 02:51:11;;;;;;;6.40;2.75;;;;;;;1.58;84.77;101481.01;123443;1103;65188;-76
2021/03/17 02:53:40;;;;;;;5.90;1.90;;;;;;;1.60;84.68;101481.75;123517;1105;64917;-75
2021/03/17 02:56:12;;;;;;;7.30;3.03;;;;;;;1.59;84.31;101477.47;123482;1105;64930;-76
2021/03/17 02:58:43;;;;;;;6.13;2.07;;;;;;;1.60;84.20;101473.08;123423;1103;65338;-76
2021/03/17 03:01:13;;;;;;;5.77;1.67;;;;;;;1.59;84.25;101467.02;123469;1105;65658;-76
2021/03/17 03:03:40;;;;;;;3.03;1.80;;;;;;;1.63;83.78;101472.86;123455;1105;64995;-76
2021/03/17 03:06:07;;;;;;;7.50;2.10;;;;;;;1.63;83.60;101478.09;123396;1102;65251;-76
2021/03/17 03:08:38;;;;;;;5.17;2.03;;;;;;;1.65;83.23;101475.39;123752;1102;64950;-76
2021/03/17 03:11:06;;;;;;;8.23;2.20;;;;;;;1.66;83.16;101466.59;123484;1105;64933;-74
2021/03/17 03:13:34;;;;;;;3.80;1.70;;;;;;;1.68;83.30;101469.95;123482;1105;64899;-76
2021/03/17 03:16:12;;;;;;;5.27;1.67;;;;;;;1.69;82.77;101463.80;123394;1105;64921;-74
2021/03/17 03:18:39;;;;;;;4.15;1.60;;;;;;;1.66;83.00;101467.45;123479;1106;65907;-75
2021/03/17 03:21:07;;;;;;;5.25;1.55;;;;;;;1.66;83.24;101467.45;125883;1102;64863;-76
2021/03/17 03:23:35;;;;;;;8.33;2.90;;;;;;;1.68;83.21;101469.95;123431;1105;65709;-76
2021/03/17 03:26:01;;;;;;;7.43;2.00;;;;;;;1.69;83.09;101477.70;123543;1105;64885;-74
2021/03/17 03:28:31;;;;;;;6.43;1.93;;;;;;;1.70;83.24;101478.54;123375;1103;64940;-75
2021/03/17 03:30:58;;;;;;;10.20;2.30;;;;;;;1.70;82.79;101489.00;123645;1105;64927;-76
2021/03/17 03:33:24;;;;;;;4.13;1.90;;;;;;;1.70;83.19;101486.38;123421;1105;65013;-75
2021/03/17 03:35:50;;;;;;;11.27;2.07;;;;;;;1.69;83.45;101479.48;123402;1103;64921;-74
2021/03/17 03:38:18;;;;;;;5.73;1.97;;;;;;;1.69;83.02;101484.72;123324;1105;64976;-74
2021/03/17 03:40:46;;;;;;;6.30;1.83;;;;;;;1.67;83.67;101484.81;123372;1102;66137;-75
2021/03/17 03:43:13;;;;;;;12.37;3.60;;;;;;;1.70;83.33;101486.38;123463;1102;64892;-76
2021/03/17 03:45:40;;;;;;;7.57;2.80;;;;;;;1.69;83.51;101479.48;123431;1105;64920;-77
2021/03/17 03:48:08;;;;;;;4.20;2.13;;;;;;;1.70;83.54;101483.77;123513;1105;64943;-75
2021/03/17 03:50:46;;;;;;;3.50;1.60;;;;;;;1.69;83.22;101482.11;123442;1102;64982;-76
2021/03/17 03:53:19;;;;;;;1.30;0.77;;;;;;;1.67;83.57;101486.59;123874;1105;64892;-74
2021/03/17 03:55:48;;;;;;;4.53;2.10;;;;;;;1.66;83.46;101492.75;123341;1102;65314;-75
2021/03/17 03:58:25;;;;;;;5.67;2.53;;;;;;;1.68;83.58;101496.11;123387;1105;64975;-76
2021/03/17 04:00:53;;;;;;;4.13;1.50;;;;;;;1.69;83.78;101498.63;123562;1102;64998;-77
2021/03/17 04:03:23;;;;;;;7.43;2.13;;;;;;;1.70;83.64;101502.94;123852;1103;64989;-76
2021/03/17 04:05:53;;;;;;;9.27;1.63;;;;;;;1.69;83.58;101503.03;123487;1102;65071;-76
2021/03/17 04:08:23;;;;;;;3.50;1.33;;;;;;;1.69;83.43;101503.03;123567;1105;64910;-76
2021/03/17 04:10:56;;;;;;;4.35;1.90;;;;;;;1.67;83.55;101495.27;123396;1102;64888;-75
2021/03/17 04:13:25;;;;;;;7.50;1.73;;;;;;;1.68;83.45;101490.87;123459;1105;65700;-74
2021/03/17 04:15:57;;;;;;;5.40;1.97;;;;;;;1.67;83.58;101495.27;123594;1102;64911;-74
2021/03/17 04:18:28;;;;;;;4.90;1.97;;;;;;;1.67;83.71;101494.44;123666;1103;64920;-75
2021/03/17 04:21:00;;;;;;;7.50;1.93;;;;;;;1.66;83.34;101492.75;123395;1102;64927;-76
2021/03/17 04:23:27;;;;;;;6.35;2.25;;;;;;;1.65;83.43;101496.31;123516;1105;64911;-75
2021/03/17 04:25:55;;;;;;;6.57;2.23;;;;;;;1.63;83.68;101502.47;123523;1105;64902;-76
2021/03/17 04:28:25;;;;;;;5.97;1.83;;;;;;;1.65;83.30;101496.31;123828;1105;65181;-76
2021/03/17 04:30:55;;;;;;;4.63;1.87;;;;;;;1.63;83.57;101510.31;123386;1102;64895;-77
2021/03/17 04:33:22;;;;;;;7.60;1.93;;;;;;;1.63;83.21;101496.41;123389;1104;64982;-76
2021/03/17 04:35:52;;;;;;;3.67;1.60;;;;;;;1.63;83.56;101499.02;123516;1105;64841;-77
2021/03/17 04:38:20;;;;;;;4.63;1.37;;;;;;;1.58;83.92;101499.31;123444;1102;64933;-76
2021/03/17 04:40:46;;;;;;;2.77;1.53;;;;;;;1.59;83.51;101514.09;123409;1102;65132;-74
2021/03/17 04:43:13;;;;;;;4.30;1.80;;;;;;;1.59;83.22;101506.23;123466;1102;64888;-75
2021/03/17 04:45:40;;;;;;;5.97;1.80;;;;;;;1.60;83.75;101513.13;123393;1105;65707;-77
2021/03/17 04:48:06;;;;;;;5.70;1.70;;;;;;;1.60;83.38;101510.52;126609;1103;63093;-76
2021/03/17 04:50:34;;;;;;;6.03;1.97;;;;;;;1.60;83.48;101513.13;125050;1105;64889;-75
2021/03/17 04:53:02;;;;;;;4.37;1.80;;;;;;;1.60;83.63;101520.15;123353;1102;65248;-77
2021/03/17 04:55:28;;;;;;;5.63;1.90;;;;;;;1.60;83.44;101509.69;123391;1105;65712;-76
2021/03/17 04:57:56;;;;;;;6.27;2.40;;;;;;;1.60;83.62;101515.75;123389;1102;65029;-76
2021/03/17 05:00:24;;;;;;;12.17;3.07;;;;;;;1.60;83.65;101518.36;123604;1102;64841;-76
2021/03/17 05:03:00;;;;;;;5.37;2.43;;;;;;;1.62;83.37;101524.34;123480;1105;64991;-76
2021/03/17 05:05:30;;;;;;;6.10;1.73;;;;;;;1.64;83.41;101526.86;123617;1102;64924;-76
2021/03/17 05:07:58;;;;;;;2.20;1.20;;;;;;;1.64;83.66;101521.64;123538;1102;64943;-76
2021/03/17 05:10:26;;;;;;;5.80;2.50;;;;;;;1.62;83.11;101524.34;123518;1103;64847;-77
2021/03/17 05:12:53;;;;;;;7.10;2.90;;;;;;;1.62;83.49;101529.57;123451;1102;64835;-76
2021/03/17 05:15:22;;;;;;;8.47;2.37;;;;;;;1.62;83.54;101531.35;123486;1105;64889;-76
2021/03/17 05:17:49;;;;;;;3.93;2.00;;;;;;;1.59;83.39;101532.39;123454;1105;64981;-76
2021/03/17 05:20:19;;;;;;;12.40;3.83;;;;;;;1.58;83.60;101525.47;123455;1102;64847;-76
2021/03/17 05:22:47;;;;;;;7.57;3.00;;;;;;;1.58;83.30;101537.70;123518;1102;64834;-75
2021/03/17 05:25:17;;;;;;;4.87;1.97;;;;;;;1.56;83.54;101529.95;123392;1105;64908;-75
2021/03/17 05:27:46;;;;;;;7.67;1.90;;;;;;;1.54;83.72;101531.82;123413;1102;64939;-78
2021/03/17 05:30:15;;;;;;;9.75;2.90;;;;;;;1.53;83.19;101531.91;123356;1103;65106;-77
2021/03/17 05:32:42;;;;;;;9.00;1.87;;;;;;;1.51;83.69;101537.25;123432;1103;66185;-76
2021/03/17 05:35:10;;;;;;;4.80;1.90;;;;;;;1.50;83.98;101534.73;123529;1102;64885;-75
2021/03/17 05:37:38;;;;;;;8.17;1.93;;;;;;;1.50;83.51;101532.95;123424;1102;64908;-78
2021/03/17 05:40:10;;;;;;;5.83;1.57;;;;;;;1.50;83.86;101532.11;123741;1102;65372;-77
2021/03/17 05:42:41;;;;;;;5.80;2.60;;;;;;;1.51;83.67;101536.39;123421;1102;64911;-77
2021/03/17 05:45:13;;;;;;;7.35;2.35;;;;;;;1.52;83.39;101532.86;123350;1102;64844;-77
2021/03/17 05:47:49;;;;;;;6.77;2.07;;;;;;;1.52;83.23;101541.53;123417;1102;65254;-76
2021/03/17 05:50:20;;;;;;;10.53;2.30;;;;;;;1.52;83.29;101536.30;123442;1104;64943;-76
2021/03/17 05:52:46;;;;;;;2.47;1.10;;;;;;;1.52;83.62;101538.92;123433;1105;64953;-77
2021/03/17 05:55:15;;;;;;;2.60;1.70;;;;;;;1.53;83.26;101545.84;123352;1105;64992;-77
2021/03/17 05:57:43;;;;;;;8.63;2.53;;;;;;;1.53;83.09;101535.39;123347;1106;64898;-76
2021/03/17 06:00:14;;;;;;;7.13;2.10;;;;;;;1.54;83.22;101538.83;123378;1105;64943;-77
2021/03/17 06:02:41;;;;;;;8.27;2.80;;;;;;;1.54;83.14;101542.28;123508;1102;64914;-76
2021/03/17 06:05:10;;;;;;;4.30;1.50;;;;;;;1.54;83.26;101541.45;123599;1102;65516;-77
2021/03/17 06:08:00;;;;;;;2.97;1.50;;;;;;;1.55;83.02;101546.59;123217;1106;64911;-75
2021/03/17 06:10:27;;;;;;;4.27;2.17;;;;;;;1.56;83.39;101556.10;123350;1105;64923;-76
2021/03/17 06:13:12;;;;;;;4.47;1.80;;;;;;;1.58;83.17;101551.61;123367;1102;64892;-76
2021/03/17 06:15:39;;;;;;;6.97;2.60;;;;;;;1.62;83.39;101550.48;123272;1102;65779;-75
2021/03/17 06:18:28;;;;;;;5.47;2.40;;;;;;;1.66;83.49;101548.53;123399;1105;66140;-75
2021/03/17 06:20:56;;;;;;;8.70;2.83;;;;;;;1.70;83.33;101554.39;123360;1102;64921;-75
2021/03/17 06:23:23;;;;;;;6.03;1.70;;;;;;;1.72;83.35;101558.61;124033;1105;64894;-74
2021/03/17 06:25:50;;;;;;;10.40;2.30;;;;;;;1.74;82.69;101569.82;123366;1105;65052;-77
2021/03/17 06:28:17;;;;;;;4.45;1.70;;;;;;;1.77;82.77;101564.38;123567;1105;64990;-77
2021/03/17 06:30:44;;;;;;;7.33;2.20;;;;;;;1.80;82.19;101566.80;123299;1103;64895;-77
2021/03/17 06:33:11;;;;;;;2.87;1.50;;;;;;;1.86;82.34;101564.74;123416;1102;64930;-76
2021/03/17 06:35:41;;;;;;;11.47;1.43;;;;;;;1.89;81.70;101568.02;123314;1102;64941;-75
2021/03/17 06:38:20;;;;;;;6.87;2.10;;;;;;;1.94;81.86;101565.94;123510;1102;64907;-77
2021/03/17 06:40:57;;;;;;;5.30;1.60;;;;;;;1.98;82.17;101567.42;123418;1102;66082;-76
2021/03/17 06:43:44;;;;;;;2.37;1.23;;;;;;;1.99;81.44;101566.47;123679;1102;64958;-76
2021/03/17 06:46:14;;;;;;;4.13;1.40;;;;;;;2.02;81.37;101562.84;123314;1105;65087;-76
2021/03/17 06:48:56;;;;;;;;;;;;;;;2.06;81.20;101563.46;123335;1103;64943;-75
2021/03/17 06:51:22;;;;;;;6.13;2.47;;;;;;;2.09;80.36;101564.11;123315;1105;64875;-75
2021/03/17 06:53:52;;;;;;;2.80;1.83;;;;;;;2.13;81.16;101570.00;123416;1102;64942;-75
2021/03/17 06:56:28;;;;;;;6.67;1.93;;;;;;;2.17;80.54;101571.48;123330;1103;64921;-77
2021/03/17 06:58:57;;;;;;;9.10;2.25;;;;;;;2.17;80.72;101574.11;123359;1105;65707;-78
2021/03/17 07:01:33;;;;;;;2.57;1.20;;;;;;;2.19;80.36;101569.58;123307;1104;65430;-74
2021/03/17 07:04:06;;;;;;;5.20;2.03;;;;;;;2.22;80.77;101564.99;123425;1105;65027;-77
2021/03/17 07:06:37;;;;;;;4.37;1.57;;;;;;;2.29;79.96;101570.67;123212;1102;64921;-74
2021/03/17 07:09:18;;;;;;;5.37;2.00;;;;;;;2.34;79.76;101571.23;123477;1102;65326;-76
2021/03/17 07:11:46;;;;;;;9.27;2.27;;;;;;;2.37;79.70;101568.40;123269;1105;64918;-75
2021/03/17 07:14:24;;;;;;;4.07;1.30;;;;;;;2.42;79.38;101573.33;123371;1102;64918;-75
2021/03/17 07:16:50;;;;;;;;;;;;;;;2.43;78.39;101573.23;123490;1105;64890;-75
2021/03/17 07:19:35;;;;;;;10.13;1.80;;;;;;;2.47;78.95;101576.50;123348;1102;64885;-77
2021/03/17 07:22:13;;;;;;;9.07;1.30;;;;;;;2.51;77.40;101584.97;123483;1105;65685;-79
2021/03/17 07:25:02;;;;;;;9.87;1.97;;;;;;;2.59;77.64;101580.94;123473;1102;65020;-77
2021/03/17 07:27:31;;;;;;;6.10;1.73;;;;;;;2.64;77.04;101575.39;123603;1105;64873;-77
2021/03/17 07:30:00;;;;;;;5.03;1.43;;;;;;;2.71;76.95;101571.41;123553;1102;64923;-78
2021/03/17 07:32:59;;;;;;;3.03;1.30;;;;;;;2.81;76.21;101577.72;123318;1102;64947;-79
2021/03/17 07:35:28;;;;;;;10.60;1.90;;;;;;;2.88;76.39;101582.55;123434;1103;64913;-81
2021/03/17 07:38:07;;;;;;;;;;;;;;;2.94;74.30;101576.91;123496;1102;65374;-77
2021/03/17 07:40:39;;;;;;;3.57;1.43;;;;;;;3.04;73.88;101580.58;123216;1102;65895;-78
2021/03/17 07:43:08;;;;;;;3.93;1.37;;;;;;;3.15;74.26;101583.30;123648;1106;64939;-77
2021/03/17 07:45:35;;;;;;;3.27;0.97;;;;;;;3.28;73.11;101587.71;123399;1105;64953;-75
2021/03/17 07:48:07;;;;;;;3.00;1.57;;;;;;;3.40;71.79;101578.97;123262;1102;64895;-76
2021/03/17 07:50:36;;;;;;;2.37;1.20;;;;;;;3.51;72.79;101584.33;123832;1102;64885;-76
2021/03/17 07:53:06;;;;;;;6.77;1.93;;;;;;;3.64;71.99;101582.52;123491;1102;64902;-77
2021/03/17 07:55:39;;;;;;;2.83;1.03;;;;;;;3.80;71.50;101587.50;123463;1103;65021;-79
2021/03/17 07:58:06;;;;;;;1.77;1.10;;;;;;;3.93;70.70;101582.25;123432;1102;64845;-78
2021/03/17 08:00:41;;;;;;;6.60;1.53;;;;;;;4.01;69.45;101589.56;123421;1102;64873;-76
2021/03/17 08:03:11;;;;;;;2.97;1.17;;;;;;;4.02;69.67;101584.20;123487;1102;65001;-75
2021/03/17 08:05:39;;;;;;;3.40;1.90;;;;;;;4.01;69.28;101584.30;123595;1102;64937;-77
2021/03/17 08:08:06;;;;;;;3.40;1.80;;;;;;;4.01;70.17;101589.56;123368;1106;64853;-80
2021/03/17 08:10:36;;;;;;;4.10;1.70;;;;;;;4.11;70.42;101590.58;124041;1102;64991;-78
2021/03/17 08:13:05;;;;;;;2.57;1.17;;;;;;;4.17;67.73;101586.68;123703;1105;64930;-79
2021/03/17 08:15:33;;;;;;;11.37;1.23;;;;;;;4.20;68.75;101589.07;123990;1102;64835;-79
2021/03/17 08:18:00;;;;;;;5.63;1.40;;;;;;;4.26;67.42;101599.13;124004;1102;64917;-77
2021/03/17 08:20:28;;;;;;;6.27;1.23;;;;;;;4.28;67.35;101586.73;123337;1105;64943;-76
2021/03/17 08:22:57;;;;;;;2.10;1.10;;;;;;;4.29;66.59;101593.64;124071;1105;64888;-76
2021/03/17 08:25:42;;;;;;;8.17;1.70;;;;;;;4.26;67.38;101596.50;124880;1105;64889;-77
2021/03/17 08:28:19;;;;;;;4.70;1.20;;;;;;;4.26;66.06;101599.13;123643;1103;65069;-78
2021/03/17 08:30:47;;;;;;;3.93;1.23;;;;;;;4.21;66.41;101590.77;123586;1103;64848;-77
2021/03/17 08:33:36;;;;;;;1.87;0.87;;;;;;;4.13;66.67;101598.35;123634;1102;64927;-76
2021/03/17 08:36:16;;;;;;;3.20;1.20;;;;;;;4.02;63.72;101592.08;123457;1103;64870;-78
2021/03/17 08:38:58;;;;;;;4.17;1.40;;;;;;;3.91;65.29;101599.89;123462;1106;65768;-78
2021/03/17 08:41:36;;;;;;;2.03;0.70;;;;;;;3.78;62.06;101593.81;123332;1105;64949;-76
2021/03/17 08:44:16;;;;;;;5.80;1.30;;;;;;;3.76;64.87;101604.45;123330;1103;64892;-78
2021/03/17 08:46:44;;;;;;;4.90;1.37;;;;;;;3.75;63.75;101599.30;123382;1103;64975;-78
2021/03/17 08:49:12;;;;;;;5.30;1.00;;;;;;;3.79;61.39;101603.38;123456;1102;65701;-77
2021/03/17 08:51:45;;;;;;;3.23;1.37;;;;;;;3.88;62.23;101600.92;123658;1102;64917;-79
2021/03/17 08:54:33;;;;;;;3.90;0.90;;;;;;;4.07;62.25;101603.08;123356;1102;65532;-78
2021/03/17 08:57:10;;;;;;;1.73;0.60;;;;;;;4.31;61.81;101601.42;123735;1101;65409;-79
2021/03/17 08:59:44;;;;;;;1.90;0.80;;;;;;;4.58;58.47;101606.44;123375;1103;64918;-78
2021/03/17 09:02:24;;;;;;;5.25;2.05;;;;;;;4.76;55.59;101618.23;123611;1105;64943;-77
2021/03/17 09:05:04;;;;;;;1.47;0.40;;;;;;;4.81;52.64;101620.51;123318;1103;64882;-79
2021/03/17 09:07:35;;;;;;;3.73;1.53;;;;;;;4.82;51.98;101617.74;123531;1105;65042;-78
2021/03/17 09:10:13;;;;;;;2.83;0.73;;;;;;;4.83;53.46;101623.86;123919;1102;64975;-78
2021/03/17 09:12:43;;;;;;;1.83;0.50;;;;;;;4.96;53.06;101621.15;123622;1102;65344;-77
2021/03/17 09:15:17;;;;;;;5.30;0.80;;;;;;;5.23;52.13;101626.95;123365;1102;65231;-78
2021/03/17 09:17:50;;;;;;;3.20;0.60;;;;;;;5.35;51.74;101624.32;123647;1102;64911;-80
2021/03/17 09:20:32;;;;;;;2.20;0.83;;;;;;;5.31;50.41;101627.20;123392;1102;65709;-78
2021/03/17 09:22:58;;;;;;;2.03;0.67;;;;;;;5.31;51.13;101629.83;123434;1102;65715;-78
2021/03/17 09:25:34;;;;;;;4.73;0.93;;;;;;;5.44;51.09;101623.60;123318;1102;64972;-78
2021/03/17 09:28:10;;;;;;;5.17;0.60;;;;;;;5.61;50.50;101628.42;123497;1102;64901;-77
2021/03/17 09:30:46;;;;;;;1.80;0.60;;;;;;;5.70;49.92;101619.79;123490;1105;65707;-79
2021/03/17 09:33:17;;;;;;;2.10;0.50;;;;;;;5.73;49.60;101619.53;124145;1106;64975;-78
2021/03/17 09:36:00;;;;;;;0.80;0.50;;;;;;;5.76;49.57;101622.89;123463;1106;64949;-77
2021/03/17 09:38:30;;;;;;;2.33;0.50;;;;;;;5.90;50.57;101617.38;123358;1105;64917;-77
2021/03/17 09:41:13;;;;;;;3.40;0.70;;;;;;;6.04;48.33;101611.06;123480;1102;65292;-78
2021/03/17 09:44:00;;;;;;;2.93;0.70;;;;;;;6.19;48.60;101614.26;123443;1102;64841;-76
2021/03/17 09:46:29;;;;;;;3.53;0.60;;;;;;;6.31;47.99;101623.78;123682;1103;64943;-76
2021/03/17 09:48:59;;;;;;;1.47;0.80;;;;;;;6.44;48.21;101619.21;123471;1106;64972;-74
2021/03/17 09:51:29;;;;;;;3.63;0.70;;;;;;;6.53;46.89;101625.53;123468;1104;65757;-76
2021/03/17 09:53:58;;;;;;;2.10;0.70;;;;;;;6.59;47.27;101619.75;123382;1105;64902;-78
2021/03/17 09:56:49;;;;;;;0.97;0.47;;;;;;;6.61;46.84;101631.02;123335;1102;64905;-76
2021/03/17 09:59:17;;;;;;;6.83;0.67;;;;;;;6.57;46.88;101620.81;123328;1106;64966;-78
2021/03/17 10:01:55;;;;;;;3.33;0.73;;;;;;;6.64;48.96;101624.64;123410;1105;64939;-76
2021/03/17 10:04:24;;;;;;;7.67;1.93;;;;;;;6.72;48.02;101625.68;123498;1102;64925;-77
2021/03/17 10:06:51;;;;;;;3.90;0.77;;;;;;;6.75;47.14;101632.49;123502;1105;65341;-78
2021/03/17 10:09:19;;;;;;;5.87;1.03;;;;;;;6.78;46.13;101626.13;123479;1105;65793;-76
2021/03/17 10:11:47;;;;;;;3.73;0.70;;;;;;;6.75;46.48;101627.22;123373;1105;65026;-76
2021/03/17 10:14:15;;;;;;;4.93;1.10;;;;;;;6.83;46.92;101632.70;123361;1105;64860;-78
2021/03/17 10:16:42;;;;;;;6.30;1.00;;;;;;;6.85;46.27;101625.50;123495;1105;65735;-78
2021/03/17 10:19:14;;;;;;;5.93;1.07;;;;;;;6.88;46.55;101627.87;123546;1102;65388;-77
2021/03/17 10:21:48;;;;;;;5.40;0.80;;;;;;;6.84;44.93;101631.75;123465;1105;64898;-80
2021/03/17 10:24:28;;;;;;;1.83;0.70;;;;;;;6.94;45.23;101621.25;123441;1102;64908;-78
2021/03/17 10:26:55;;;;;;;4.87;1.37;;;;;;;7.09;47.71;101624.41;123396;1102;64988;-78
2021/03/17 10:29:21;;;;;;;6.23;0.80;;;;;;;7.30;48.46;101627.86;123325;1105;64906;-79
2021/03/17 10:31:53;;;;;;;3.10;0.70;;;;;;;7.37;47.81;101637.90;123455;1102;64991;-77
2021/03/17 10:34:21;;;;;;;1.77;0.90;;;;;;;7.29;47.71;101634.13;123446;1105;64831;-79
2021/03/17 10:36:53;;;;;;;4.30;1.03;;;;;;;7.21;48.50;101635.74;123407;1105;65052;-79
2021/03/17 10:39:33;;;;;;;3.33;0.80;;;;;;;7.06;48.14;101636.06;123337;1105;64895;-78
2021/03/17 10:42:01;;;;;;;2.73;1.10;;;;;;;7.05;49.24;101634.38;123478;1105;64891;-78
2021/03/17 10:44:31;;;;;;;4.00;0.93;;;;;;;7.17;47.54;101632.52;123535;1102;66928;-77
2021/03/17 10:47:11;;;;;;;2.43;0.90;;;;;;;7.26;46.77;101637.00;123466;1102;64838;-78
2021/03/17 10:49:45;;;;;;;5.70;1.03;;;;;;;7.42;46.98;101636.55;123412;1105;64937;-78
2021/03/17 10:52:12;;;;;;;3.30;0.90;;;;;;;7.59;46.80;101627.19;123580;1102;64894;-79
2021/03/17 10:54:40;;;;;;;2.70;1.03;;;;;;;7.69;45.80;101633.34;123638;1102;64943;-77
2021/03/17 10:57:29;;;;;;;4.53;1.10;;;;;;;7.88;46.24;101631.72;123756;1103;64946;-80
2021/03/17 11:00:10;;;;;;;7.97;1.17;;;;;;;8.08;45.60;101630.81;123870;1106;65489;-79
2021/03/17 11:02:36;;;;;;;4.13;0.90;;;;;;;8.20;45.48;101626.23;124229;1105;65026;-79
2021/03/17 11:05:07;;;;;;;5.57;0.90;;;;;;;8.21;44.77;101625.28;123814;1102;64838;-79
2021/03/17 11:07:56;;;;;;;2.80;0.80;;;;;;;8.16;44.78;101628.34;123943;1102;64977;-80
2021/03/17 11:10:31;;;;;;;10.53;5.17;;;;;;;8.26;44.14;101635.44;123877;1102;64898;-80
2021/03/17 11:13:10;;;;;;;4.73;2.33;;;;;;;8.39;44.35;101630.72;123461;1105;64985;-78
2021/03/17 11:15:45;;;;;;;2.50;1.00;;;;;;;8.51;43.91;101627.01;123509;1102;64979;-80
2021/03/17 11:18:26;;;;;;;3.33;0.93;;;;;;;8.59;44.37;101634.26;123508;1105;64911;-80
2021/03/17 11:21:03;;;;;;;1.53;0.70;;;;;;;8.78;44.54;101630.78;123691;1102;64882;-78
2021/03/17 11:23:33;;;;;;;2.17;0.90;;;;;;;8.82;43.88;101633.95;123427;1105;64901;-78
2021/03/17 11:26:02;;;;;;;3.97;0.90;;;;;;;8.94;43.09;101636.31;124273;1106;64901;-79
2021/03/17 11:28:36;;;;;;;4.43;0.73;;;;;;;9.14;44.03;101629.20;123634;1106;65254;-78
2021/03/17 11:31:05;;;;;;;2.33;0.80;;;;;;;9.35;43.21;101630.80;123926;1102;64885;-78
2021/03/17 11:33:32;;;;;;;1.90;0.80;;;;;;;9.35;40.56;101629.02;123462;1101;65010;-80
2021/03/17 11:36:00;;;;;;;2.33;0.93;;;;;;;9.50;40.92;101628.52;123505;1102;64917;-81
2021/03/17 11:38:28;;;;;;;4.60;1.00;;;;;;;9.46;41.05;101635.12;123626;1104;64943;-80
2021/03/17 11:40:57;;;;;;;3.67;1.10;;;;;;;9.67;42.26;101622.48;123392;1102;64891;-79
2021/03/17 11:43:28;;;;;;;1.30;0.60;;;;;;;9.88;41.20;101626.69;124068;1102;64909;-79
2021/03/17 11:45:57;;;;;;;3.83;0.83;;;;;;;9.86;39.78;101628.66;123458;1105;65681;-77